Time;durP1;ratioP1;P1;durP2;ratioP2;P2;SDS_P1;SDS_P2;PMS_P1;PMS_P2;Temp;Humidity;BMP_temperature;BMP_pressure;BME280_temperature;BME280_humidity;BME280_pressure;Samples;Min_cycle;Max_cycle;Signal;HPM_P1;HPM_P2
2024/03/15 00:00:09;;;;;;;16.23;8.90;;;;;;;18.10;61.34;100695.75;4965303;28;20039;-81
2024/03/15 00:02:34;;;;;;;13.73;9.05;;;;;;;18.23;61.20;100697.25;4962680;28;20035;-80
2024/03/15 00:05:00;;;;;;;14.77;9.07;;;;;;;18.23;60.80;100693.72;4957684;29;20126;-81
2024/03/15 00:07:26;;;;;;;16.75;8.90;;;;;;;18.22;60.96;100697.25;4958712;28;20126;-79
2024/03/15 00:09:54;;;;;;;16.15;9.05;;;;;;;18.25;60.74;100698.06;4955957;28;20086;-79
2024/03/15 00:12:19;;;;;;;17.73;8.85;;;;;;;18.30;60.64;100697.94;4956790;28;20039;-80
2024/03/15 00:14:45;;;;;;;14.85;8.60;;;;;;;18.32;60.25;100692.66;4953741;28;20475;-80
2024/03/15 00:17:11;;;;;;;14.55;8.30;;;;;;;18.16;61.00;100690.34;4955161;28;20062;-79
2024/03/15 00:19:48;;;;;;;13.80;8.05;;;;;;;18.35;60.00;100695.25;4957303;28;20066;-82
2024/03/15 00:22:17;;;;;;;12.65;7.65;;;;;;;18.35;59.77;100693.47;4958043;28;20584;-81
2024/03/15 00:24:42;;;;;;;14.43;8.70;;;;;;;18.33;59.53;100692.63;4953727;28;20043;-80
2024/03/15 00:27:07;;;;;;;14.75;8.20;;;;;;;18.07;60.40;100689.66;4955536;28;20031;-80
2024/03/15 00:29:36;;;;;;;12.80;7.50;;;;;;;18.16;60.47;100695.63;4952752;28;20043;-81
2024/03/15 00:32:06;;;;;;;11.45;7.13;;;;;;;18.47;59.22;100687.94;4953717;29;20039;-81
2024/03/15 00:34:33;;;;;;;12.32;7.47;;;;;;;18.21;60.27;100690.25;4954790;28;20031;-81
2024/03/15 00:36:59;;;;;;;14.35;7.63;;;;;;;18.31;59.83;100688.25;4955343;28;20027;-82
2024/03/15 00:39:24;;;;;;;12.52;7.18;;;;;;;18.33;59.61;100691.75;4955095;28;20031;-80
2024/03/15 00:41:49;;;;;;;12.85;7.75;;;;;;;18.33;59.07;100699.66;4954686;28;20031;-81
2024/03/15 00:44:18;;;;;;;13.48;8.00;;;;;;;18.47;58.81;100693.22;4954754;28;20035;-80
2024/03/15 00:46:43;;;;;;;14.20;7.93;;;;;;;18.52;58.62;100688.69;4954847;28;20521;-82
2024/03/15 00:49:10;;;;;;;13.48;7.93;;;;;;;18.43;58.94;100693.28;4957208;28;20031;-80
2024/03/15 00:51:36;;;;;;;16.30;8.15;;;;;;;17.84;61.07;100690.97;4954182;28;20110;-80
2024/03/15 00:54:04;;;;;;;14.93;7.30;;;;;;;18.11;60.34;100681.63;4954426;29;20059;-82
2024/03/15 00:56:33;;;;;;;13.90;8.07;;;;;;;18.13;60.24;100685.13;4954719;28;20517;-80
2024/03/15 00:58:58;;;;;;;13.50;7.60;;;;;;;18.20;59.47;100680.59;4955741;28;20039;-81
2024/03/15 01:01:24;;;;;;;16.70;8.18;;;;;;;18.06;60.08;100687.91;4955381;28;20078;-81
2024/03/15 01:03:50;;;;;;;13.50;7.50;;;;;;;18.29;59.42;100677.75;4954952;28;20032;-80
2024/03/15 01:06:15;;;;;;;11.23;7.53;;;;;;;18.57;58.30;100672.78;4954878;28;20054;-80
2024/03/15 01:08:41;;;;;;;18.90;8.18;;;;;;;18.45;59.13;100673.00;4954549;28;20044;-80
2024/03/15 01:11:07;;;;;;;13.43;7.65;;;;;;;18.23;60.40;100676.13;4953202;29;20042;-80
2024/03/15 01:13:33;;;;;;;13.77;7.85;;;;;;;17.69;62.34;100674.56;4954711;28;20047;-80
2024/03/15 01:16:01;;;;;;;14.18;7.97;;;;;;;18.08;61.49;100678.19;4958934;28;20489;-80
2024/03/15 01:18:27;;;;;;;16.98;8.43;;;;;;;18.29;60.68;100674.25;4956435;28;20039;-82
2024/03/15 01:20:52;;;;;;;16.98;8.63;;;;;;;18.25;61.19;100678.72;4958849;28;20498;-81
2024/03/15 01:23:20;;;;;;;15.10;7.95;;;;;;;18.13;61.89;100676.31;4958689;28;20568;-80
2024/03/15 01:25:45;;;;;;;14.10;8.60;;;;;;;18.19;62.03;100678.84;4958167;28;20046;-81
2024/03/15 01:28:12;;;;;;;12.35;7.97;;;;;;;18.07;62.75;100676.44;4958680;28;20503;-79
2024/03/15 01:30:42;;;;;;;12.55;8.27;;;;;;;18.03;63.27;100675.66;4956290;28;20035;-82
2024/03/15 01:33:08;;;;;;;13.10;8.07;;;;;;;17.74;64.06;100664.81;4958093;28;20481;-80
2024/03/15 01:35:33;;;;;;;14.07;8.90;;;;;;;17.76;64.47;100674.41;4957729;28;20043;-80
2024/03/15 01:38:05;;;;;;;17.42;9.23;;;;;;;17.63;65.50;100680.81;4958816;28;20493;-81
2024/03/15 01:40:31;;;;;;;15.43;9.23;;;;;;;17.76;65.45;100677.06;4961047;28;20130;-82
2024/03/15 01:42:56;;;;;;;17.70;9.00;;;;;;;17.81;65.96;100685.75;4959346;29;20098;-81
2024/03/15 01:45:31;;;;;;;14.77;8.52;;;;;;;17.71;66.95;100678.91;4957152;29;20478;-82
2024/03/15 01:47:57;;;;;;;16.63;9.13;;;;;;;17.18;69.95;100678.97;4952335;28;20038;-80
2024/03/15 01:50:23;;;;;;;18.13;9.63;;;;;;;17.04;71.61;100677.44;4956671;29;20523;-80
2024/03/15 01:52:50;;;;;;;16.08;8.93;;;;;;;17.13;71.79;100676.44;4957122;28;20039;-81
2024/03/15 01:55:15;;;;;;;16.38;9.20;;;;;;;16.86;72.95;100672.47;4957995;28;20039;-80
2024/03/15 01:57:47;;;;;;;17.85;9.68;;;;;;;16.56;75.10;100664.97;4957202;28;20042;-81
2024/03/15 02:00:16;;;;;;;17.00;8.77;;;;;;;16.97;73.92;100667.88;4958311;28;20572;-81
2024/03/15 02:02:56;;;;;;;14.88;8.57;;;;;;;16.96;74.59;100663.50;4956008;28;20117;-80
2024/03/15 02:05:32;;;;;;;16.20;8.75;;;;;;;16.94;74.38;100659.19;4955820;29;20118;-83
2024/03/15 02:07:57;;;;;;;16.55;8.65;;;;;;;16.74;75.95;100662.13;4958021;28;20086;-81
2024/03/15 02:10:28;;;;;;;13.50;8.63;;;;;;;16.80;75.69;100661.16;4957831;28;20039;-81
2024/03/15 02:13:06;;;;;;;13.55;8.70;;;;;;;16.47;77.88;100652.81;4957513;28;20094;-80
2024/03/15 02:15:34;;;;;;;15.05;8.70;;;;;;;16.87;76.42;100665.44;4959232;28;20082;-83
2024/03/15 02:18:05;;;;;;;14.40;8.82;;;;;;;17.13;75.38;100668.53;4957947;28;20060;-81
2024/03/15 02:20:31;;;;;;;15.88;8.85;;;;;;;17.11;75.31;100657.13;4959484;28;20038;-80
2024/03/15 02:22:59;;;;;;;17.33;9.55;;;;;;;16.57;76.21;100661.47;4962845;28;20040;-79
2024/03/15 02:25:31;;;;;;;16.35;9.63;;;;;;;16.71;77.70;100664.78;4968576;28;20031;-81
2024/03/15 02:27:57;;;;;;;18.63;10.00;;;;;;;17.01;76.15;100672.22;4968119;28;20036;-81
2024/03/15 02:30:22;;;;;;;16.60;9.50;;;;;;;17.22;75.45;100664.84;4969197;28;20059;-80
2024/03/15 02:32:48;;;;;;;17.30;9.65;;;;;;;16.52;77.12;100665.94;4964434;28;20039;-81
2024/03/15 02:35:15;;;;;;;18.70;10.27;;;;;;;16.69;77.42;100670.97;4956614;29;20039;-80
2024/03/15 02:37:40;;;;;;;17.70;10.02;;;;;;;16.49;78.79;100660.69;4955859;28;20042;-80
2024/03/15 02:40:09;;;;;;;16.23;9.82;;;;;;;16.61;78.55;100671.94;4957176;28;20035;-81
2024/03/15 02:42:36;;;;;;;16.25;9.48;;;;;;;16.54;78.34;100666.75;4956806;28;20031;-81
2024/03/15 02:45:05;;;;;;;15.02;9.07;;;;;;;16.91;77.20;100665.34;4957148;28;20035;-81
2024/03/15 02:47:30;;;;;;;13.65;9.40;;;;;;;17.19;76.29;100664.91;4956664;28;20038;-81
2024/03/15 02:50:06;;;;;;;17.20;8.90;;;;;;;16.71;78.24;100661.31;4957682;28;20031;-82
2024/03/15 02:52:31;;;;;;;19.00;9.68;;;;;;;16.84;76.94;100666.34;4959234;28;20044;-82
2024/03/15 02:55:04;;;;;;;15.45;9.20;;;;;;;16.84;77.38;100670.72;4965087;28;20082;-82
2024/03/15 02:57:32;;;;;;;17.05;8.80;;;;;;;17.08;76.09;100662.44;4963201;28;20066;-82
2024/03/15 02:59:57;;;;;;;14.43;8.55;;;;;;;17.13;76.43;100672.91;4958863;29;20086;-82
2024/03/15 03:02:23;;;;;;;16.10;8.95;;;;;;;16.67;77.81;100673.63;4957229;29;20031;-81
2024/03/15 03:04:51;;;;;;;12.35;8.10;;;;;;;16.91;77.36;100672.38;4956019;28;20043;-82
2024/03/15 03:07:17;;;;;;;14.95;7.95;;;;;;;16.95;76.31;100672.34;4958566;28;20039;-81
2024/03/15 03:09:42;;;;;;;14.52;7.72;;;;;;;16.49;77.59;100664.19;4957700;28;20031;-81
2024/03/15 03:12:07;;;;;;;15.30;7.40;;;;;;;16.77;77.37;100669.09;4958530;28;20031;-80
2024/03/15 03:14:36;;;;;;;14.85;7.80;;;;;;;16.87;76.14;100674.19;4957898;28;20402;-83
2024/03/15 03:17:07;;;;;;;14.63;7.28;;;;;;;16.96;76.07;100675.81;4959219;28;20150;-82
2024/03/15 03:19:33;;;;;;;12.05;7.07;;;;;;;16.90;76.30;100673.25;4957730;28;20133;-82
2024/03/15 03:22:10;;;;;;;11.68;6.95;;;;;;;16.57;77.25;100670.22;4962149;28;20047;-82
2024/03/15 03:24:38;;;;;;;14.60;6.95;;;;;;;16.60;77.13;100670.22;4974512;28;20050;-79
2024/03/15 03:27:05;;;;;;;13.27;6.88;;;;;;;17.08;75.08;100669.50;4975100;28;20215;-80
2024/03/15 03:29:31;;;;;;;12.38;6.75;;;;;;;17.15;74.96;100671.97;4972060;28;20037;-80
2024/03/15 03:31:59;;;;;;;9.90;6.45;;;;;;;17.04;74.99;100676.56;4961260;28;20122;-80
2024/03/15 03:34:31;;;;;;;12.07;6.95;;;;;;;17.11;74.63;100672.94;4960945;28;20031;-81
2024/03/15 03:37:02;;;;;;;15.45;6.32;;;;;;;17.34;73.48;100665.50;4965753;28;20055;-80
2024/03/15 03:39:30;;;;;;;13.45;6.88;;;;;;;16.73;76.36;100663.00;4973776;28;20039;-80
2024/03/15 03:41:56;;;;;;;12.18;7.20;;;;;;;17.19;74.58;100668.41;4974715;29;20035;-80
2024/03/15 03:44:21;;;;;;;12.73;6.78;;;;;;;16.97;75.50;100674.91;4974278;28;20055;-78
2024/03/15 03:46:47;;;;;;;13.40;7.00;;;;;;;17.00;74.90;100673.13;4961496;29;20027;-81
2024/03/15 03:49:12;;;;;;;16.70;7.05;;;;;;;17.07;74.54;100670.38;4957871;28;20063;-80
2024/03/15 03:51:44;;;;;;;13.82;7.70;;;;;;;17.07;75.26;100675.66;4956532;28;20489;-81
2024/03/15 03:54:11;;;;;;;18.13;8.13;;;;;;;16.65;77.65;100671.94;4955184;29;20063;-79
2024/03/15 03:56:42;;;;;;;14.82;7.78;;;;;;;16.91;76.61;100667.97;4954157;28;20142;-80
2024/03/15 03:59:08;;;;;;;14.15;7.68;;;;;;;16.75;76.81;100666.50;4956394;28;20035;-81
2024/03/15 04:01:39;;;;;;;14.82;8.35;;;;;;;16.84;76.29;100674.22;4954211;28;20059;-80
2024/03/15 04:04:05;;;;;;;15.07;7.97;;;;;;;16.88;76.18;100670.69;4956846;28;20074;-80
2024/03/15 04:06:34;;;;;;;15.55;8.57;;;;;;;16.63;76.78;100677.19;4956439;28;20122;-81
2024/03/15 04:09:00;;;;;;;14.60;8.27;;;;;;;16.82;76.78;100669.91;4954701;29;20043;-81
2024/03/15 04:11:25;;;;;;;14.07;8.98;;;;;;;16.88;77.09;100662.78;4955649;28;20074;-80
2024/03/15 04:13:52;;;;;;;15.40;8.38;;;;;;;16.85;76.95;100672.47;4954866;29;20035;-82
2024/03/15 04:16:18;;;;;;;13.20;8.27;;;;;;;16.67;77.05;100675.38;4953734;29;20034;-81
2024/03/15 04:18:44;;;;;;;17.80;8.32;;;;;;;16.64;77.68;100676.31;4954004;28;20039;-82
2024/03/15 04:21:12;;;;;;;15.55;7.50;;;;;;;16.36;79.27;100667.00;4956189;28;20115;-81
2024/03/15 04:23:38;;;;;;;15.82;7.18;;;;;;;15.97;82.01;100676.28;4954842;28;20464;-81
2024/03/15 04:26:03;;;;;;;13.82;7.43;;;;;;;15.98;81.90;100673.63;4956320;28;20023;-80
2024/03/15 04:28:32;;;;;;;13.80;7.53;;;;;;;16.34;80.65;100667.06;4955064;28;20032;-80
2024/03/15 04:30:58;;;;;;;12.30;7.43;;;;;;;16.45;80.42;100662.50;4955946;28;20039;-82
2024/03/15 04:33:30;;;;;;;12.20;7.30;;;;;;;16.12;81.72;100679.59;4957331;28;20090;-81
2024/03/15 04:35:55;;;;;;;14.05;8.13;;;;;;;15.95;82.89;100667.53;4960849;28;20035;-80
2024/03/15 04:38:20;;;;;;;16.98;8.27;;;;;;;16.15;81.89;100666.44;4961351;28;20027;-80
2024/03/15 04:40:55;;;;;;;15.75;8.52;;;;;;;15.10;84.60;100682.38;4957869;28;20039;-82
2024/03/15 04:43:21;;;;;;;;;;;;;;;15.65;85.02;100677.53;4957716;28;20027;-79
2024/03/15 04:45:46;;;;;;;16.08;8.40;;;;;;;15.66;83.85;100675.75;4955803;28;20018;-82
2024/03/15 04:48:12;;;;;;;16.73;9.05;;;;;;;15.30;85.00;100676.97;4956308;28;20031;-82
2024/03/15 04:50:40;;;;;;;18.25;8.50;;;;;;;15.07;85.49;100661.38;4964020;28;20039;-81
2024/03/15 04:53:06;;;;;;;19.42;9.63;;;;;;;14.87;87.22;100679.94;4970575;28;20375;-81
2024/03/15 04:55:37;;;;;;;23.02;9.52;;;;;;;15.32;85.93;100673.41;4967843;28;20501;-80
2024/03/15 04:58:02;;;;;;;18.02;8.80;;;;;;;15.98;83.01;100678.88;4960260;29;20065;-82
2024/03/15 05:00:30;;;;;;;16.95;8.95;;;;;;;16.24;82.37;100673.31;4962784;28;20029;-81
2024/03/15 05:03:05;;;;;;;14.90;9.05;;;;;;;15.69;84.46;100666.06;4965961;28;20058;-83
2024/03/15 05:05:39;;;;;;;20.73;9.77;;;;;;;15.81;83.94;100675.59;4960403;28;20493;-81
2024/03/15 05:08:08;;;;;;;16.45;9.23;;;;;;;16.24;82.44;100674.19;4960991;28;20040;-81
2024/03/15 05:10:36;;;;;;;18.98;9.30;;;;;;;15.52;84.23;100675.91;4962244;28;20039;-81
2024/03/15 05:13:02;;;;;;;18.60;9.55;;;;;;;16.22;81.79;100670.69;4964754;28;20062;-81
2024/03/15 05:15:27;;;;;;;15.10;8.43;;;;;;;16.01;82.97;100681.50;4962760;28;20094;-82
2024/03/15 05:17:56;;;;;;;17.45;8.43;;;;;;;16.04;82.19;100676.19;4959631;29;20067;-80
2024/03/15 05:20:21;;;;;;;15.40;8.43;;;;;;;16.06;81.97;100674.41;4960730;29;20032;-81
2024/03/15 05:22:47;;;;;;;15.82;8.40;;;;;;;15.75;83.05;100670.41;4959078;28;20097;-81
2024/03/15 05:25:14;;;;;;;17.95;8.38;;;;;;;15.82;83.51;100682.59;4959331;28;20062;-82
2024/03/15 05:27:40;;;;;;;16.05;8.38;;;;;;;15.99;82.03;100675.38;4959749;28;20051;-81
2024/03/15 05:30:07;;;;;;;17.20;8.27;;;;;;;15.95;81.87;100678.94;4960023;28;20031;-80
2024/03/15 05:32:33;;;;;;;17.05;8.80;;;;;;;15.95;81.80;100678.94;4957007;28;20051;-81
2024/03/15 05:35:05;;;;;;;19.25;8.60;;;;;;;16.56;79.41;100663.22;4959197;28;20035;-80
2024/03/15 05:37:30;;;;;;;22.42;9.10;;;;;;;16.00;81.13;100671.84;4957017;28;20574;-81
2024/03/15 05:39:56;;;;;;;20.40;9.00;;;;;;;16.05;80.89;100682.31;4959169;28;20066;-81
2024/03/15 05:42:29;;;;;;;16.73;8.60;;;;;;;15.93;81.75;100667.56;4960124;28;20034;-81
2024/03/15 05:44:58;;;;;;;17.02;7.82;;;;;;;16.27;80.85;100672.41;4959909;28;20119;-81
2024/03/15 05:47:23;;;;;;;16.55;8.23;;;;;;;16.35;80.10;100660.88;4961066;29;20043;-81
2024/03/15 05:49:49;;;;;;;19.13;8.68;;;;;;;15.91;80.98;100665.84;4962628;28;20039;-82
2024/03/15 05:52:14;;;;;;;19.77;8.30;;;;;;;16.20;80.46;100679.50;4958074;28;20043;-80
2024/03/15 05:54:40;;;;;;;18.60;7.28;;;;;;;15.96;79.32;100670.16;4959265;28;20047;-82
2024/03/15 05:57:12;;;;;;;20.10;7.22;;;;;;;16.11;79.54;100675.22;4964405;28;20036;-79
2024/03/15 05:59:37;;;;;;;17.23;6.45;;;;;;;15.92;80.61;100672.84;4959310;28;20047;-80
2024/03/15 06:02:06;;;;;;;15.40;6.55;;;;;;;15.64;81.13;100685.41;4958101;29;20027;-80
2024/03/15 06:04:34;;;;;;;14.82;5.28;;;;;;;15.80;80.44;100679.97;4959741;28;20032;-83
2024/03/15 06:06:59;;;;;;;17.02;5.93;;;;;;;15.68;80.67;100677.47;4958846;28;20042;-80
2024/03/15 06:09:25;;;;;;;18.38;5.95;;;;;;;16.03;79.62;100684.13;4959047;28;20118;-83
2024/03/15 06:11:51;;;;;;;17.15;5.90;;;;;;;16.36;78.06;100688.94;4957014;29;20106;-82
2024/03/15 06:14:17;;;;;;;19.88;5.63;;;;;;;15.61;80.89;100685.47;4957590;29;20126;-81
2024/03/15 06:16:43;;;;;;;12.65;5.25;;;;;;;15.68;80.18;100687.09;4959596;28;20039;-81
2024/03/15 06:19:12;;;;;;;16.77;4.65;;;;;;;15.97;79.51;100682.44;4968815;28;20035;-82
2024/03/15 06:21:38;;;;;;;19.15;5.03;;;;;;;15.97;79.44;100677.16;4966790;28;20477;-82
2024/03/15 06:24:10;;;;;;;19.75;5.05;;;;;;;15.54;81.52;100676.75;4958699;28;20090;-83
2024/03/15 06:26:36;;;;;;;20.40;5.07;;;;;;;15.90;79.47;100685.13;4957569;28;20065;-81
2024/03/15 06:29:01;;;;;;;17.95;4.93;;;;;;;16.01;78.89;100676.22;4959175;28;20130;-79
2024/03/15 06:31:27;;;;;;;14.95;4.65;;;;;;;15.93;78.91;100680.69;4960911;28;20039;-83
2024/03/15 06:33:56;;;;;;;16.83;4.85;;;;;;;15.52;79.73;100683.78;4960358;28;20031;-84
2024/03/15 06:36:29;;;;;;;19.75;4.78;;;;;;;15.90;78.63;100685.13;4956388;29;20035;-80
2024/03/15 06:38:57;;;;;;;15.77;4.30;;;;;;;16.44;76.71;100686.22;4957101;28;20112;-80
2024/03/15 06:44:19;;;;;;;16.10;4.40;;;;;;;16.40;76.45;100687.16;4955868;28;20057;-79
2024/03/15 06:52:42;;;;;;;14.20;3.63;;;;;;;16.55;75.88;100693.06;4954956;28;20046;-80
2024/03/15 06:55:10;;;;;;;10.95;3.42;;;;;;;16.24;77.16;100695.22;4955196;28;20421;-80
2024/03/15 06:57:39;;;;;;;15.27;3.17;;;;;;;15.88;78.25;100700.03;4956493;28;20413;-80
2024/03/15 07:00:14;;;;;;;11.27;3.05;;;;;;;16.35;76.24;100692.44;4953334;29;20393;-78
2024/03/15 07:02:43;;;;;;;12.10;2.88;;;;;;;16.41;76.14;100694.13;4955270;28;20468;-82
2024/03/15 07:05:11;;;;;;;11.48;2.60;;;;;;;16.15;76.27;100698.00;4956272;28;20040;-80
2024/03/15 07:07:42;;;;;;;11.23;2.70;;;;;;;16.97;73.21;100710.03;4955916;28;20090;-81
2024/03/15 07:10:09;;;;;;;12.35;2.80;;;;;;;16.69;73.53;100699.94;4957335;28;20043;-82
2024/03/15 07:12:38;;;;;;;12.73;2.55;;;;;;;15.97;76.64;100715.75;4955281;28;20042;-82
2024/03/15 07:15:10;;;;;;;9.20;2.28;;;;;;;16.42;74.97;100709.03;4957620;28;20038;-81
2024/03/15 07:17:38;;;;;;;13.18;2.40;;;;;;;16.06;75.53;100715.63;4957420;28;20041;-82
2024/03/15 07:20:07;;;;;;;12.38;2.40;;;;;;;16.78;73.98;100705.91;4959064;28;20036;-80
2024/03/15 07:22:33;;;;;;;13.27;2.75;;;;;;;16.50;74.37;100715.06;4962944;28;20050;-82
2024/03/15 07:25:03;;;;;;;14.40;2.90;;;;;;;16.49;74.38;100715.97;4960533;28;20033;-82
2024/03/15 07:27:32;;;;;;;16.17;2.97;;;;;;;16.38;75.25;100721.38;4955439;28;20097;-79
2024/03/15 07:29:59;;;;;;;14.15;2.75;;;;;;;16.40;74.82;100716.09;4956828;28;20038;-78
2024/03/15 07:32:24;;;;;;;11.65;2.55;;;;;;;16.84;73.26;100712.84;4955997;28;20502;-80
2024/03/15 07:34:50;;;;;;;13.00;3.05;;;;;;;16.96;73.25;100720.56;4970622;28;20131;-80
2024/03/15 07:37:22;;;;;;;12.75;2.53;;;;;;;16.59;74.35;100713.22;4955682;28;20522;-80
2024/03/15 07:39:48;;;;;;;9.63;2.28;;;;;;;16.26;74.84;100720.66;4954827;28;20035;-79
2024/03/15 07:42:13;;;;;;;14.50;3.00;;;;;;;16.73;73.83;100723.56;4957085;28;20027;-81
2024/03/15 07:44:48;;;;;;;12.18;2.97;;;;;;;17.13;71.90;100729.13;4960741;28;20042;-79
2024/03/15 07:47:14;;;;;;;14.75;2.42;;;;;;;16.97;72.71;100728.47;4956352;29;20071;-80
2024/03/15 07:49:43;;;;;;;13.68;2.55;;;;;;;16.93;72.56;100723.28;4955170;28;20039;-82
2024/03/15 07:52:08;;;;;;;16.00;2.92;;;;;;;16.98;72.64;100727.56;4956391;29;20054;-82
2024/03/15 07:54:34;;;;;;;12.23;2.90;;;;;;;17.09;72.12;100718.63;4955081;28;20039;-80
2024/03/15 07:56:59;;;;;;;37.45;3.85;;;;;;;17.52;71.17;100722.28;4953643;28;20039;-80
2024/03/15 07:59:24;;;;;;;13.85;3.22;;;;;;;17.23;71.19;100725.44;4953249;28;20063;-80
2024/03/15 08:01:50;;;;;;;16.25;3.45;;;;;;;17.03;72.53;100723.09;4952636;28;20035;-79
2024/03/15 08:04:18;;;;;;;14.88;3.33;;;;;;;17.23;71.57;100727.19;4953866;28;20035;-82
2024/03/15 08:06:44;;;;;;;10.70;3.20;;;;;;;17.58;68.65;100716.03;4955886;28;20147;-80
2024/03/15 08:09:11;;;;;;;17.80;3.72;;;;;;;17.44;70.14;100719.78;4953516;28;20031;-80
2024/03/15 08:11:37;;;;;;;12.38;3.53;;;;;;;17.67;69.23;100724.72;4952579;28;20046;-79
2024/03/15 08:14:03;;;;;;;12.90;3.60;;;;;;;17.49;70.05;100725.00;4953093;28;20035;-80
2024/03/15 08:16:34;;;;;;;14.50;3.63;;;;;;;17.80;69.11;100722.72;4953444;28;20039;-80
2024/03/15 08:19:07;;;;;;;13.30;3.67;;;;;;;18.07;67.58;100721.31;4952385;29;20037;-81
2024/03/15 08:21:33;;;;;;;14.43;3.47;;;;;;;17.89;69.08;100722.53;4953029;28;20039;-81
2024/03/15 08:24:04;;;;;;;19.35;4.30;;;;;;;17.62;69.02;100729.19;4954274;28;20089;-82
2024/03/15 08:26:29;;;;;;;14.32;3.85;;;;;;;17.80;68.13;100723.59;4954309;28;20065;-81
2024/03/15 08:28:56;;;;;;;10.80;3.58;;;;;;;17.61;68.99;100730.09;4953776;29;20432;-82
2024/03/15 08:31:21;;;;;;;16.08;3.67;;;;;;;16.80;71.01;100733.09;4955835;28;20401;-82
2024/03/15 08:33:50;;;;;;;10.45;3.47;;;;;;;17.32;69.93;100734.97;4957992;28;20042;-80
2024/03/15 08:36:18;;;;;;;30.83;3.72;;;;;;;17.38;68.92;100735.69;4957638;29;20050;-78
2024/03/15 08:38:44;;;;;;;17.70;4.15;;;;;;;17.69;69.05;100737.84;4964558;28;20046;-79
2024/03/15 08:41:17;;;;;;;15.63;3.90;;;;;;;17.38;69.70;100742.75;4961923;29;20034;-80
2024/03/15 08:43:42;;;;;;;78.05;6.05;;;;;;;16.54;71.11;100743.06;4967037;28;20039;-80
2024/03/15 08:46:10;;;;;;;10.35;3.80;;;;;;;16.99;70.39;100750.38;4960557;28;20039;-80
2024/03/15 08:48:36;;;;;;;18.25;4.00;;;;;;;16.89;70.52;100750.56;4943759;28;20123;-79
2024/03/15 08:51:04;;;;;;;13.63;3.88;;;;;;;17.12;70.52;100752.84;4941573;29;20055;-80
2024/03/15 08:53:30;;;;;;;14.65;4.18;;;;;;;17.18;70.01;100747.47;4940902;29;20044;-80
2024/03/15 08:55:58;;;;;;;22.63;4.95;;;;;;;16.98;70.04;100742.50;4939623;29;20043;-79
2024/03/15 08:58:26;;;;;;;19.42;4.57;;;;;;;16.98;70.15;100742.50;4939541;29;20043;-80
2024/03/15 09:00:53;;;;;;;18.25;4.70;;;;;;;17.18;70.12;100750.09;4934716;29;20032;-80
2024/03/15 09:03:19;;;;;;;18.25;4.47;;;;;;;17.17;69.03;100743.09;4936536;29;20036;-82
2024/03/15 09:05:46;;;;;;;16.33;4.45;;;;;;;17.20;70.25;100753.59;4931861;29;20103;-79
2024/03/15 09:08:12;;;;;;;18.77;4.28;;;;;;;17.67;68.41;100748.44;4934802;29;20556;-81
2024/03/15 09:10:40;;;;;;;14.23;4.28;;;;;;;17.78;68.16;100745.59;4933666;29;20043;-79
2024/03/15 09:13:06;;;;;;;16.00;4.75;;;;;;;17.54;68.78;100732.81;4933777;29;20508;-79
2024/03/15 09:15:33;;;;;;;18.52;4.40;;;;;;;17.34;69.14;100743.69;4933779;29;20047;-78
2024/03/15 09:17:59;;;;;;;16.75;4.30;;;;;;;17.88;67.94;100741.00;4946916;29;20553;-82
2024/03/15 09:22:56;;;;;;;19.67;5.50;;;;;;;17.38;69.39;100748.88;4932999;29;20036;-79
2024/03/15 09:25:31;;;;;;;19.23;5.47;;;;;;;16.72;71.52;100747.25;4934892;29;20043;-82
2024/03/15 09:27:57;;;;;;;19.52;5.38;;;;;;;17.43;69.58;100741.78;4936154;29;20039;-79
2024/03/15 09:30:29;;;;;;;17.63;5.60;;;;;;;17.09;70.88;100748.47;4934404;29;20032;-80
2024/03/15 09:32:56;;;;;;;20.10;5.18;;;;;;;17.61;69.15;100747.66;4934940;29;20096;-81
2024/03/15 09:35:27;;;;;;;22.65;5.88;;;;;;;18.28;67.63;100743.75;4938426;29;20067;-82
2024/03/15 09:37:56;;;;;;;39.03;5.93;;;;;;;17.89;67.01;100748.91;4941863;29;20043;-83
2024/03/15 09:40:24;;;;;;;14.60;4.90;;;;;;;17.12;70.80;100747.56;4945600;29;20036;-82
2024/03/15 09:42:53;;;;;;;15.77;5.97;;;;;;;17.69;69.49;100758.94;4952191;29;20445;-83
2024/03/15 09:45:21;;;;;;;15.93;4.95;;;;;;;16.99;71.92;100752.16;4952575;29;20082;-81
2024/03/15 09:47:50;;;;;;;16.83;5.50;;;;;;;17.31;70.22;100759.56;4948993;29;20047;-77
2024/03/15 09:50:21;;;;;;;17.83;4.78;;;;;;;16.88;72.00;100761.97;4951840;29;20047;-80
2024/03/15 09:52:51;;;;;;;16.13;4.50;;;;;;;16.89;71.46;100761.09;4950712;29;20086;-80
2024/03/15 09:55:17;;;;;;;13.25;4.13;;;;;;;17.60;70.14;100752.06;4950463;29;20095;-79
2024/03/15 09:57:44;;;;;;;16.60;3.78;;;;;;;17.46;69.77;100751.38;4950264;29;20043;-80
2024/03/15 10:00:16;;;;;;;13.95;3.63;;;;;;;17.48;71.17;100754.88;4959263;29;20091;-80
2024/03/15 10:02:45;;;;;;;16.35;3.53;;;;;;;17.90;68.85;100750.66;4942160;29;20883;-82
2024/03/15 10:05:12;;;;;;;15.82;3.15;;;;;;;18.25;67.99;100760.50;4944070;29;20126;-82
2024/03/15 10:07:38;;;;;;;14.50;3.22;;;;;;;18.40;66.94;100754.94;4949625;29;20521;-81
2024/03/15 10:10:11;;;;;;;14.40;3.53;;;;;;;17.92;67.14;100764.69;4950849;29;20148;-79
2024/03/15 10:13:00;;;;;;;13.13;3.55;;;;;;;17.56;69.21;100749.50;4949336;29;20091;-79
2024/03/15 10:15:25;;;;;;;10.82;3.97;;;;;;;17.68;69.05;100752.81;4939473;29;20037;-81
2024/03/15 10:17:52;;;;;;;12.15;4.53;;;;;;;16.97;70.61;100767.97;4939803;29;20446;-83
2024/03/15 10:20:25;;;;;;;10.38;4.38;;;;;;;17.53;69.70;100754.78;4938571;29;20058;-83
2024/03/15 10:22:52;;;;;;;16.42;4.53;;;;;;;17.51;69.04;100760.09;4938905;29;20090;-81
2024/03/15 10:25:22;;;;;;;12.40;4.63;;;;;;;17.85;68.35;100768.34;4940909;29;20408;-82
2024/03/15 10:27:53;;;;;;;13.02;5.20;;;;;;;17.70;68.30;100760.69;4940548;29;20397;-81
2024/03/15 10:30:28;;;;;;;10.63;4.57;;;;;;;17.61;68.77;100768.75;4942384;29;20032;-81
2024/03/15 10:32:55;;;;;;;14.60;4.93;;;;;;;17.75;68.43;100767.59;4939637;29;20122;-82
2024/03/15 10:35:24;;;;;;;13.95;4.50;;;;;;;17.53;69.38;100770.59;4940719;29;20095;-80
2024/03/15 10:37:50;;;;;;;11.73;4.00;;;;;;;17.40;69.64;100757.63;4939258;29;20036;-81
2024/03/15 10:40:26;;;;;;;11.05;3.15;;;;;;;17.19;70.31;100767.66;4942284;29;20035;-82
2024/03/15 10:42:54;;;;;;;7.78;2.80;;;;;;;17.29;70.02;100769.25;4938698;29;20139;-81
2024/03/15 10:45:23;;;;;;;12.77;2.70;;;;;;;17.62;69.96;100776.66;4945030;29;20613;-82
2024/03/15 10:47:53;;;;;;;11.77;2.80;;;;;;;17.42;69.86;100768.16;4939639;29;20038;-81
2024/03/15 10:50:20;;;;;;;9.98;2.78;;;;;;;17.58;70.01;100766.13;4939578;29;20040;-84
2024/03/15 10:52:48;;;;;;;13.00;3.35;;;;;;;17.52;70.93;100780.28;4938147;29;20052;-82
2024/03/15 10:55:26;;;;;;;13.57;3.25;;;;;;;17.43;70.32;100770.78;4940203;29;20031;-82
2024/03/15 10:58:04;;;;;;;9.93;3.30;;;;;;;17.39;70.57;100769.06;4938650;29;20070;-83
2024/03/15 11:00:32;;;;;;;12.48;3.67;;;;;;;16.88;70.39;100770.75;4938263;29;20039;-79
2024/03/15 11:03:11;;;;;;;8.13;3.05;;;;;;;17.57;69.24;100765.25;4940869;29;20098;-82
2024/03/15 11:05:37;;;;;;;10.10;3.33;;;;;;;18.07;66.94;100758.22;4944651;29;20243;-81
2024/03/15 11:08:06;;;;;;;9.63;3.50;;;;;;;17.90;67.56;100758.56;4947897;29;20032;-81
2024/03/15 11:10:32;;;;;;;8.07;3.28;;;;;;;18.19;67.03;100758.00;4949880;29;20031;-83
2024/03/15 11:13:03;;;;;;;11.60;3.55;;;;;;;18.32;66.01;100751.56;4941585;29;20094;-81
2024/03/15 11:15:33;;;;;;;12.30;3.38;;;;;;;17.62;66.93;100762.59;4940164;29;20143;-85
2024/03/15 11:18:06;;;;;;;8.25;3.40;;;;;;;17.73;66.76;100771.19;4942283;29;20031;-81
2024/03/15 11:20:53;;;;;;;8.32;3.53;;;;;;;17.93;65.00;100763.75;4943998;29;20470;-80
2024/03/15 11:23:21;;;;;;;8.55;3.97;;;;;;;17.69;66.11;100774.75;4944812;29;20577;-83
2024/03/15 11:25:57;;;;;;;8.48;3.67;;;;;;;17.73;66.97;100765.91;4942387;29;20055;-81
2024/03/15 11:28:23;;;;;;;8.45;3.65;;;;;;;17.65;66.35;100762.53;4941847;29;20485;-82
2024/03/15 11:30:52;;;;;;;11.02;3.60;;;;;;;18.13;64.61;100771.31;4941034;29;20036;-82